Terminal Aerodrome Forecast
Issued by NWS

Current Version | Previous Version | Text Only | Print | Product List | Glossary On
Versions: 1 2 3 4 5 6 7 8 9 10 11 12 13 14 15 16 17 18 19 20 21 22 23 24 25 26 27 28 29 30
000
FTUS42 KRAH 210439 AAA
TAFRWI
TAF AMD
KRWI 210439Z 2105/2124 36008KT P6SM SCT030 OVC250
     FM210600 36008KT P6SM BKN007 BKN025 OVC250
      TEMPO 2106/2110 5SM -RA OVC007
     FM211300 33011G18KT P6SM BKN250
     FM211700 30009KT P6SM SCT250=

USA.gov is the U.S. government's official web portal to all federal, state and local government web resources and services.